Time;durP1;ratioP1;P1;durP2;ratioP2;P2;SDS_P1;SDS_P2;PMS_P1;PMS_P2;Temp;Humidity;BMP_temperature;BMP_pressure;BME280_temperature;BME280_humidity;BME280_pressure;Samples;Min_cycle;Max_cycle;Signal;HPM_P1;HPM_P2
2022/06/20 00:00:08;;;;;;;3.70;3.40;;;;;;;15.92;90.37;63643.69;4965059;28;20223;-79
2022/06/20 00:02:42;;;;;;;3.45;3.10;;;;;;;15.89;90.35;63645.19;4960458;28;20229;-78
2022/06/20 00:05:14;;;;;;;3.03;2.83;;;;;;;15.90;90.47;63646.22;4965603;29;20255;-77
2022/06/20 00:07:41;;;;;;;6.95;3.15;;;;;;;15.91;89.32;63647.78;4967744;28;20208;-78
2022/06/20 00:10:09;;;;;;;3.67;2.72;;;;;;;15.91;88.98;63640.06;4967201;28;20246;-78
2022/06/20 00:12:37;;;;;;;2.83;2.63;;;;;;;15.91;87.46;63645.22;4963593;28;20207;-78
2022/06/20 00:15:05;;;;;;;4.18;2.40;;;;;;;15.91;88.84;63644.72;4965890;28;20247;-78
2022/06/20 00:17:32;;;;;;;2.65;2.40;;;;;;;15.85;88.28;63635.88;4966021;29;20215;-78
2022/06/20 00:19:59;;;;;;;4.55;2.80;;;;;;;15.85;87.42;63641.56;4964600;28;20232;-78
2022/06/20 00:22:26;;;;;;;3.28;2.58;;;;;;;15.80;88.42;63633.78;4965615;28;20471;-77
2022/06/20 00:24:52;;;;;;;3.17;2.97;;;;;;;15.76;87.98;63629.63;4965368;28;20547;-79
2022/06/20 00:27:19;;;;;;;2.75;2.65;;;;;;;15.77;88.55;63633.22;4964367;28;20224;-77
2022/06/20 00:29:49;;;;;;;2.92;2.72;;;;;;;15.77;88.55;63632.72;4960016;28;20220;-79
2022/06/20 00:32:16;;;;;;;2.67;2.47;;;;;;;15.78;88.42;63629.13;4963544;29;20209;-78
2022/06/20 00:34:47;;;;;;;4.03;2.95;;;;;;;15.75;87.86;63628.59;4960004;28;20240;-78
2022/06/20 00:37:19;;;;;;;5.32;2.55;;;;;;;15.63;88.65;63613.53;4980864;28;20231;-79
2022/06/20 00:39:46;;;;;;;3.55;2.85;;;;;;;15.65;88.07;63620.25;4971347;28;20298;-78
2022/06/20 00:42:13;;;;;;;3.10;2.90;;;;;;;15.59;88.65;63614.50;4962316;29;20514;-78
2022/06/20 00:44:43;;;;;;;2.63;2.42;;;;;;;15.61;88.67;63610.94;4964678;28;20228;-78
2022/06/20 00:47:15;;;;;;;2.58;2.25;;;;;;;15.60;89.03;63612.97;5035718;28;20193;-78
2022/06/20 00:49:48;;;;;;;2.75;2.55;;;;;;;15.57;89.23;63611.91;4968655;28;20299;-79
2022/06/20 00:52:20;;;;;;;3.35;2.40;;;;;;;15.57;89.76;63614.47;4964604;29;20200;-78
2022/06/20 00:54:51;;;;;;;2.95;2.75;;;;;;;15.45;90.15;63594.81;4962271;28;20244;-78
2022/06/20 00:57:22;;;;;;;3.42;2.45;;;;;;;15.46;90.22;63597.91;4969190;28;20242;-78
2022/06/20 00:59:52;;;;;;;2.67;2.47;;;;;;;15.46;90.54;63600.50;4951198;28;20228;-79
2022/06/20 01:02:26;;;;;;;2.38;2.28;;;;;;;15.33;91.12;63586.94;4965542;28;20208;-77
2022/06/20 01:04:59;;;;;;;2.85;2.20;;;;;;;15.21;92.36;63574.47;4967172;29;20240;-78
2022/06/20 01:07:31;;;;;;;2.67;2.40;;;;;;;15.11;92.86;63564.59;4966852;29;20252;-78
2022/06/20 01:09:59;;;;;;;6.53;2.53;;;;;;;14.84;94.49;63531.44;4967800;28;20415;-78
2022/06/20 01:12:29;;;;;;;4.75;2.78;;;;;;;14.81;94.52;63528.28;4963931;28;20296;-78
2022/06/20 01:14:56;;;;;;;2.85;2.65;;;;;;;14.86;94.40;63533.50;4965526;28;20256;-79
2022/06/20 01:17:32;;;;;;;5.22;2.15;;;;;;;14.87;94.35;63534.53;4970391;28;20207;-78
2022/06/20 01:20:04;;;;;;;2.50;2.30;;;;;;;14.78;94.79;63533.41;4963231;28;20573;-78
2022/06/20 01:22:41;;;;;;;1.77;1.77;;;;;;;14.82;94.97;63527.28;4964804;28;20506;-78
2022/06/20 01:25:32;;;;;;;2.17;2.03;;;;;;;14.69;94.25;63520.97;4966242;29;20216;-78
2022/06/20 01:28:02;;;;;;;2.05;1.95;;;;;;;14.63;93.63;63515.25;4959025;28;20212;-79
2022/06/20 01:30:33;;;;;;;2.55;2.33;;;;;;;14.71;93.34;63520.47;4961743;28;20239;-78
2022/06/20 01:33:00;;;;;;;2.38;2.13;;;;;;;14.76;93.36;63526.19;4965344;28;20212;-78
2022/06/20 01:38:15;;;;;;;1.63;1.63;;;;;;;14.89;91.51;63547.38;4963781;28;20411;-78
2022/06/20 01:42:18;;;;;;;1.90;1.80;;;;;;;14.91;91.43;63543.81;4963059;28;20225;-78
2022/06/20 01:43:34;;;;;;;5.30;2.08;;;;;;;14.91;91.26;63541.78;4963960;28;20228;-78
2022/06/20 01:46:08;;;;;;;2.13;2.03;;;;;;;14.86;91.15;63541.72;4964304;29;20231;-78
2022/06/20 01:48:38;;;;;;;1.70;1.70;;;;;;;14.77;90.70;63521.59;4960629;28;20279;-78
2022/06/20 01:51:09;;;;;;;2.70;1.70;;;;;;;14.89;88.75;63542.25;4964421;28;20224;-78
2022/06/20 01:53:36;;;;;;;2.08;1.98;;;;;;;14.88;88.45;63541.22;4963904;29;20196;-77
2022/06/20 01:56:05;;;;;;;2.38;2.17;;;;;;;14.92;87.94;63544.88;4960966;28;20553;-78
2022/06/20 01:58:38;;;;;;;2.13;2.03;;;;;;;14.88;88.17;63538.13;4971842;28;20224;-77
2022/06/20 02:01:06;;;;;;;1.90;1.70;;;;;;;14.89;86.86;63539.69;4964664;29;20223;-78
2022/06/20 02:03:37;;;;;;;1.95;1.85;;;;;;;14.91;86.36;63541.25;4966184;29;20434;-78
2022/06/20 02:06:04;;;;;;;2.10;2.00;;;;;;;14.94;85.95;63542.31;4964247;28;20223;-77
2022/06/20 02:08:32;;;;;;;1.30;1.30;;;;;;;14.99;86.11;63547.00;4968325;28;20228;-78
2022/06/20 02:11:06;;;;;;;1.40;1.33;;;;;;;14.92;87.36;63550.50;4963394;28;20248;-79
2022/06/20 02:13:40;;;;;;;1.70;1.67;;;;;;;14.89;86.45;63539.69;4964077;28;20201;-78
2022/06/20 02:16:11;;;;;;;1.85;1.75;;;;;;;14.90;85.67;63537.66;4961084;28;20234;-77
2022/06/20 02:18:40;;;;;;;2.15;1.80;;;;;;;14.84;85.38;63531.44;4963274;29;20271;-78
2022/06/20 02:21:11;;;;;;;2.10;1.90;;;;;;;14.83;86.07;63533.47;4963726;29;20459;-78
2022/06/20 02:23:43;;;;;;;1.73;1.63;;;;;;;14.87;85.61;63535.06;4959790;28;20209;-78
2022/06/20 02:26:12;;;;;;;2.03;1.70;;;;;;;14.83;86.25;63532.94;4963626;29;20220;-78
2022/06/20 02:28:46;;;;;;;5.57;2.22;;;;;;;14.81;86.12;63533.94;4963845;28;20201;-78
2022/06/20 02:31:14;;;;;;;1.85;1.77;;;;;;;14.86;85.96;63539.16;4963896;29;20227;-78
2022/06/20 02:33:41;;;;;;;2.10;2.00;;;;;;;14.86;85.54;63536.06;4961576;28;20258;-78
2022/06/20 02:36:08;;;;;;;2.50;2.30;;;;;;;14.92;85.36;63539.72;4963374;28;20295;-79
2022/06/20 02:38:37;;;;;;;2.03;1.92;;;;;;;14.87;85.65;63540.19;4965499;28;20193;-78
2022/06/20 02:41:04;;;;;;;2.35;2.00;;;;;;;14.88;86.39;63543.25;4968675;29;20457;-78
2022/06/20 02:43:37;;;;;;;2.40;2.30;;;;;;;14.84;87.57;63537.06;4968452;28;20275;-79
2022/06/20 02:46:10;;;;;;;2.20;2.10;;;;;;;14.83;88.48;63530.91;4967926;29;20220;-78
2022/06/20 02:48:39;;;;;;;2.22;1.95;;;;;;;14.79;89.15;63531.34;4964663;29;20197;-78
2022/06/20 02:51:09;;;;;;;1.95;1.80;;;;;;;14.70;89.80;63517.38;4960145;28;20295;-78
2022/06/20 02:53:40;;;;;;;2.17;2.08;;;;;;;14.71;90.46;63515.34;4964105;29;20189;-79
2022/06/20 02:56:13;;;;;;;5.28;1.95;;;;;;;14.68;89.41;63517.38;4964080;28;20432;-78
2022/06/20 02:58:43;;;;;;;1.60;1.60;;;;;;;14.71;88.30;63518.44;4963770;29;20299;-79
2022/06/20 03:01:19;;;;;;;2.17;2.08;;;;;;;14.68;88.72;63514.81;4961465;28;20279;-78
2022/06/20 03:03:49;;;;;;;1.90;1.77;;;;;;;14.63;89.43;63509.59;4963401;28;20430;-78
2022/06/20 03:06:24;;;;;;;2.15;2.05;;;;;;;14.66;89.70;63513.25;4964050;29;20514;-79
2022/06/20 03:08:52;;;;;;;2.00;1.90;;;;;;;14.60;90.17;63509.06;4961939;28;20264;-78
2022/06/20 03:11:19;;;;;;;2.38;2.17;;;;;;;14.55;91.42;63501.81;4961824;29;20248;-78
2022/06/20 03:13:47;;;;;;;2.13;2.03;;;;;;;14.55;92.15;63498.72;4962863;28;20213;-79
2022/06/20 03:16:17;;;;;;;2.30;2.20;;;;;;;14.55;92.51;63503.84;4963217;28;20559;-78
2022/06/20 03:18:50;;;;;;;1.85;1.77;;;;;;;14.52;93.20;63498.19;4958646;28;20205;-78
2022/06/20 03:21:21;;;;;;;2.63;2.13;;;;;;;14.58;92.65;63506.97;4963981;28;20220;-79
2022/06/20 03:23:49;;;;;;;1.75;1.75;;;;;;;14.64;92.07;63513.72;4964326;28;20200;-78
2022/06/20 03:26:20;;;;;;;2.35;2.17;;;;;;;14.68;92.32;63517.88;4963860;28;20278;-78
2022/06/20 03:28:47;;;;;;;2.33;2.22;;;;;;;14.71;92.41;63525.59;4962077;28;20218;-78
2022/06/20 03:31:15;;;;;;;2.40;2.30;;;;;;;14.82;90.41;63531.91;4968009;28;20267;-79
2022/06/20 03:33:43;;;;;;;2.15;2.05;;;;;;;14.81;90.17;63530.84;4967633;28;20279;-80
2022/06/20 03:36:13;;;;;;;3.55;3.35;;;;;;;14.89;91.15;63539.19;4966094;28;20229;-79
2022/06/20 03:38:42;;;;;;;8.27;4.30;;;;;;;14.97;91.88;63548.00;4964550;28;20205;-79
2022/06/20 03:41:11;;;;;;;3.38;3.15;;;;;;;15.04;91.45;63557.34;4968813;29;20284;-79
2022/06/20 03:43:40;;;;;;;4.63;2.83;;;;;;;15.12;93.85;63565.63;4969096;28;20201;-78
2022/06/20 03:46:12;;;;;;;3.45;3.08;;;;;;;15.23;97.88;63571.94;4964881;28;20289;-78
2022/06/20 03:48:46;;;;;;;3.35;3.15;;;;;;;15.28;96.12;63582.28;4968629;29;20347;-78
2022/06/20 03:51:19;;;;;;;3.72;3.33;;;;;;;15.11;97.01;63564.09;4969540;28;20221;-79
2022/06/20 03:53:53;;;;;;;3.33;2.95;;;;;;;14.77;99.33;63524.66;4966064;28;20207;-78
2022/06/20 03:56:25;;;;;;;3.42;3.15;;;;;;;15.04;99.40;63555.28;4965902;29;20248;-78
2022/06/20 03:58:59;;;;;;;3.70;3.38;;;;;;;15.11;99.44;63564.59;4967532;28;20254;-78
2022/06/20 04:01:31;;;;;;;3.20;3.03;;;;;;;15.15;100.00;63561.06;4967926;28;20207;-77
2022/06/20 04:04:03;;;;;;;5.93;3.65;;;;;;;15.15;100.00;63563.13;4979553;28;20213;-78
2022/06/20 04:06:34;;;;;;;5.13;4.35;;;;;;;15.00;100.00;63553.69;4971359;28;20221;-79
2022/06/20 04:12:00;;;;;;;5.47;4.07;;;;;;;15.17;100.00;63565.69;4993375;28;20223;-79
2022/06/20 04:14:33;;;;;;;4.28;3.88;;;;;;;15.21;100.00;63575.00;4963359;29;20586;-78
2022/06/20 04:18:27;;;;;;;5.70;5.20;;;;;;;15.24;100.00;63580.16;4965505;28;20264;-79
2022/06/20 04:19:57;;;;;;;4.22;3.90;;;;;;;15.30;100.00;63584.34;4964547;28;20248;-78
2022/06/20 04:22:29;;;;;;;5.00;4.55;;;;;;;15.36;100.00;63590.59;4966130;28;20197;-78
2022/06/20 04:25:02;;;;;;;6.25;5.22;;;;;;;15.50;100.00;63602.59;4971575;28;20234;-78
2022/06/20 04:27:36;;;;;;;5.80;4.20;;;;;;;15.64;100.00;63614.06;4965620;28;20248;-78
2022/06/20 04:30:10;;;;;;;13.10;4.88;;;;;;;15.89;100.00;63645.69;4971426;29;20223;-78
2022/06/20 04:32:43;;;;;;;5.40;4.50;;;;;;;16.00;100.00;63654.06;4960291;28;20215;-77
2022/06/20 04:35:16;;;;;;;7.00;4.38;;;;;;;16.04;100.00;63658.22;4972919;28;20231;-77
2022/06/20 04:37:48;;;;;;;6.88;4.25;;;;;;;16.09;100.00;63663.41;4973879;29;20204;-78
2022/06/20 04:40:22;;;;;;;5.70;5.13;;;;;;;16.25;100.00;63676.97;4973419;28;20227;-79
2022/06/20 04:42:53;;;;;;;9.75;4.63;;;;;;;16.20;100.00;63677.94;4971922;28;20196;-78
2022/06/20 04:45:24;;;;;;;10.20;5.50;;;;;;;16.30;100.00;63684.75;4971214;28;20411;-78
2022/06/20 04:47:55;;;;;;;6.65;5.63;;;;;;;16.39;100.00;63694.09;4969293;28;20196;-78
2022/06/20 04:50:26;;;;;;;5.20;4.78;;;;;;;16.57;100.00;63712.84;4967959;28;20232;-78
2022/06/20 04:52:57;;;;;;;6.20;4.70;;;;;;;16.62;98.26;63718.06;4969671;29;20212;-78
2022/06/20 04:55:27;;;;;;;4.78;4.38;;;;;;;16.60;96.17;63710.84;4975486;28;20224;-79
2022/06/20 04:57:59;;;;;;;9.00;4.57;;;;;;;16.78;94.04;63735.22;4972062;29;20199;-80
2022/06/20 05:00:30;;;;;;;9.43;5.00;;;;;;;16.86;91.22;63743.53;4970045;28;20243;-79
2022/06/20 05:02:58;;;;;;;5.40;4.90;;;;;;;16.79;91.97;63736.25;4970654;28;20259;-79
2022/06/20 05:05:32;;;;;;;16.35;5.40;;;;;;;16.83;93.57;63737.31;4971278;28;20243;-79
2022/06/20 05:08:01;;;;;;;11.02;4.80;;;;;;;16.86;93.91;63743.53;4958435;28;20208;-79
2022/06/20 05:10:33;;;;;;;6.10;5.00;;;;;;;17.04;94.16;63767.44;4965575;28;20220;-79
2022/06/20 05:13:06;;;;;;;8.00;5.28;;;;;;;17.10;92.53;63765.94;5038496;28;20197;-79
2022/06/20 05:15:40;;;;;;;5.72;5.03;;;;;;;17.20;91.25;63778.41;5060636;28;20220;-79
2022/06/20 05:18:15;;;;;;;8.98;4.80;;;;;;;17.16;89.65;63777.34;5028080;28;20200;-79
2022/06/20 05:20:46;;;;;;;5.10;4.60;;;;;;;17.32;90.44;63788.84;4970361;28;20280;-79
2022/06/20 05:23:16;;;;;;;5.80;4.45;;;;;;;17.36;89.92;63797.13;4971803;29;20189;-78
2022/06/20 05:25:44;;;;;;;7.88;4.93;;;;;;;17.52;88.22;63811.22;4966532;28;20224;-78
2022/06/20 05:28:15;;;;;;;4.45;4.07;;;;;;;17.55;85.86;63811.78;4966844;28;20218;-79
2022/06/20 05:30:43;;;;;;;6.60;4.43;;;;;;;17.38;86.85;63799.72;4967790;28;20227;-78
2022/06/20 05:33:19;;;;;;;10.70;5.18;;;;;;;17.43;88.13;63801.84;4969162;28;20219;-79
2022/06/20 05:35:52;;;;;;;6.05;5.05;;;;;;;17.42;87.47;63803.38;4966704;28;20423;-79
2022/06/20 05:38:27;;;;;;;5.18;4.60;;;;;;;17.47;88.19;63806.03;4966929;29;20269;-80
2022/06/20 05:40:57;;;;;;;7.20;4.80;;;;;;;17.81;85.30;63844.03;4963957;28;20235;-78
2022/06/20 05:43:28;;;;;;;5.60;4.25;;;;;;;18.00;81.64;63858.66;4966535;28;20271;-78
2022/06/20 05:46:04;;;;;;;5.80;4.22;;;;;;;18.00;80.23;63861.22;4976554;28;20232;-79
2022/06/20 05:48:35;;;;;;;5.10;3.80;;;;;;;18.18;81.28;63882.56;4949083;28;20224;-79
2022/06/20 05:51:07;;;;;;;5.55;3.92;;;;;;;18.36;78.62;63899.25;4953708;29;20586;-78
2022/06/20 05:53:43;;;;;;;6.00;3.58;;;;;;;18.36;77.20;63899.25;4968256;28;20507;-78
2022/06/20 05:56:18;;;;;;;4.03;3.72;;;;;;;18.36;78.09;63901.81;4963366;28;20239;-79
2022/06/20 05:58:47;;;;;;;4.53;4.13;;;;;;;18.51;77.32;63911.81;4966025;29;20219;-79
2022/06/20 06:01:18;;;;;;;4.93;3.92;;;;;;;18.47;77.57;63910.22;4965247;28;20258;-79
2022/06/20 06:03:55;;;;;;;3.63;3.42;;;;;;;18.48;73.56;63913.84;4968776;28;20218;-79
2022/06/20 06:06:31;;;;;;;5.93;3.75;;;;;;;18.39;74.48;63904.97;5017973;28;20410;-79
2022/06/20 06:09:03;;;;;;;3.35;3.15;;;;;;;18.69;73.10;63935.22;4964920;28;20206;-79
2022/06/20 06:11:34;;;;;;;7.15;3.92;;;;;;;18.89;74.82;63950.88;4967379;28;20206;-79
2022/06/20 06:14:06;;;;;;;7.82;4.20;;;;;;;19.03;74.35;63968.06;4965115;28;20200;-80
2022/06/20 06:16:48;;;;;;;7.70;4.93;;;;;;;19.18;73.70;63981.13;4964976;29;20445;-79
2022/06/20 06:19:22;;;;;;;3.60;3.40;;;;;;;19.26;70.80;63989.97;4966498;29;20222;-78
2022/06/20 06:21:52;;;;;;;4.10;3.80;;;;;;;19.21;71.22;63995.09;4966414;28;20200;-80
2022/06/20 06:24:24;;;;;;;4.50;3.75;;;;;;;19.22;70.83;63990.47;4966382;28;20203;-79
2022/06/20 06:26:56;;;;;;;2.92;2.72;;;;;;;19.19;70.63;63982.69;4965630;28;20234;-79
2022/06/20 06:29:26;;;;;;;4.43;3.20;;;;;;;19.42;67.37;64011.84;4963189;28;20235;-79
2022/06/20 06:31:58;;;;;;;3.17;2.95;;;;;;;19.72;66.93;64034.88;4971952;28;20268;-77
2022/06/20 06:34:35;;;;;;;3.72;3.42;;;;;;;19.69;67.46;64038.97;4955502;28;20575;-78
2022/06/20 06:37:11;;;;;;;3.85;3.45;;;;;;;19.70;69.55;64037.94;4965572;28;20247;-78
2022/06/20 06:39:45;;;;;;;4.07;3.72;;;;;;;19.82;71.21;64052.53;4963787;28;20223;-79
2022/06/20 06:42:20;;;;;;;6.40;3.58;;;;;;;19.77;69.27;64044.72;4966378;28;20539;-80
2022/06/20 06:44:49;;;;;;;5.45;4.15;;;;;;;19.88;68.78;64053.63;4975323;28;20223;-80
2022/06/20 06:47:20;;;;;;;5.57;3.30;;;;;;;19.99;67.38;64062.50;4967377;28;20205;-79
2022/06/20 06:49:50;;;;;;;3.97;3.67;;;;;;;20.15;66.50;64079.22;4965206;28;20228;-78
2022/06/20 06:52:23;;;;;;;5.32;4.10;;;;;;;20.36;66.80;64106.31;4965973;28;20218;-78
2022/06/20 06:54:56;;;;;;;4.32;3.45;;;;;;;20.38;65.70;64108.41;4965297;28;20234;-80
2022/06/20 06:57:32;;;;;;;4.78;3.60;;;;;;;20.43;65.10;64114.13;4953589;28;20220;-79
2022/06/20 07:00:29;;;;;;;3.75;3.45;;;;;;;20.63;65.01;64134.50;4960553;29;20227;-79
2022/06/20 07:03:01;;;;;;;4.15;3.13;;;;;;;20.76;63.86;64150.66;5022385;28;20204;-78
2022/06/20 07:05:36;;;;;;;3.80;3.42;;;;;;;20.93;66.79;64167.88;4965702;28;20221;-81
2022/06/20 07:08:13;;;;;;;3.80;3.25;;;;;;;21.13;65.81;64186.19;4958070;28;20218;-79
2022/06/20 07:10:47;;;;;;;3.38;2.42;;;;;;;21.36;61.67;64213.34;4970112;28;20231;-78
2022/06/20 07:13:22;;;;;;;6.38;3.22;;;;;;;21.43;60.18;64223.22;4956131;28;20197;-78
2022/06/20 07:15:50;;;;;;;4.30;2.97;;;;;;;21.58;60.47;64231.13;4963775;29;20223;-78
2022/06/20 07:18:28;;;;;;;6.32;2.85;;;;;;;21.71;60.78;64247.31;4966481;28;20239;-78
2022/06/20 07:20:55;;;;;;;4.88;3.85;;;;;;;21.67;59.61;64247.78;4966414;29;20330;-78
2022/06/20 07:23:24;;;;;;;5.20;2.97;;;;;;;21.76;59.43;64247.34;4955528;29;20205;-78
2022/06/20 07:25:52;;;;;;;4.95;3.03;;;;;;;21.82;60.63;64262.94;4960097;29;20220;-80
2022/06/20 07:28:34;;;;;;;2.90;2.70;;;;;;;21.88;57.68;64264.56;4968849;28;20207;-78
2022/06/20 07:31:13;;;;;;;4.88;2.70;;;;;;;22.02;58.59;64279.19;4970731;28;20239;-79
2022/06/20 07:33:44;;;;;;;3.35;2.92;;;;;;;22.04;56.41;64278.19;4968386;28;20274;-78
2022/06/20 07:36:14;;;;;;;2.60;2.40;;;;;;;21.71;56.45;64247.31;4966726;28;20220;-78
2022/06/20 07:38:47;;;;;;;5.10;2.70;;;;;;;21.86;58.18;64262.47;4967098;28;20200;-78
2022/06/20 07:41:20;;;;;;;3.03;2.60;;;;;;;22.00;56.29;64279.19;4960698;28;20276;-79
2022/06/20 07:43:55;;;;;;;4.90;2.75;;;;;;;21.89;53.29;64270.28;4957909;29;20196;-78
2022/06/20 07:46:26;;;;;;;2.85;2.40;;;;;;;21.92;56.10;64270.81;4947920;28;20216;-78
2022/06/20 07:48:57;;;;;;;4.80;2.58;;;;;;;22.11;54.58;64293.78;4947811;29;20280;-78
2022/06/20 07:51:30;;;;;;;7.68;2.72;;;;;;;22.30;57.19;64307.94;4951073;29;20248;-78
2022/06/20 07:54:03;;;;;;;4.15;2.58;;;;;;;22.52;51.89;64328.84;4948188;29;20200;-78
2022/06/20 07:56:37;;;;;;;3.10;2.33;;;;;;;22.47;50.89;64323.09;4964981;29;20229;-79
2022/06/20 07:59:10;;;;;;;2.42;2.33;;;;;;;22.60;52.67;64342.44;4967225;28;20196;-79
2022/06/20 08:01:43;;;;;;;2.45;2.25;;;;;;;22.55;50.65;64334.63;4966296;29;20460;-79
2022/06/20 08:04:11;;;;;;;3.40;1.98;;;;;;;22.63;49.88;64345.56;4963709;29;20201;-78
2022/06/20 08:06:43;;;;;;;2.33;2.22;;;;;;;22.76;49.07;64356.56;4948204;29;20221;-80
2022/06/20 08:09:19;;;;;;;2.22;2.13;;;;;;;22.89;47.79;64370.16;4947885;29;20201;-78
2022/06/20 08:11:51;;;;;;;4.05;2.30;;;;;;;23.03;47.77;64384.28;4947624;29;20493;-78
2022/06/20 08:14:26;;;;;;;3.15;2.20;;;;;;;22.85;45.29;64368.03;4959270;28;20208;-78
2022/06/20 08:16:59;;;;;;;2.53;2.17;;;;;;;22.86;46.06;64367.03;4964382;28;20235;-78
2022/06/20 08:19:26;;;;;;;1.23;1.23;;;;;;;22.79;42.65;64359.72;4964458;28;20234;-78
2022/06/20 08:22:00;;;;;;;2.22;2.10;;;;;;;22.84;43.16;64364.94;4966273;29;20263;-78
2022/06/20 08:24:33;;;;;;;2.33;1.80;;;;;;;23.14;47.46;64397.88;4948152;29;20256;-77
2022/06/20 08:27:05;;;;;;;4.85;2.17;;;;;;;23.29;46.65;64410.97;4953190;29;20204;-78
2022/06/20 08:29:40;;;;;;;2.40;2.20;;;;;;;23.40;43.88;64425.59;4951238;28;20217;-78
2022/06/20 08:32:16;;;;;;;3.63;2.40;;;;;;;23.35;43.70;64412.56;4949778;28;20462;-78
2022/06/20 08:34:49;;;;;;;2.53;2.38;;;;;;;23.51;44.72;64433.97;4947443;29;20228;-79
2022/06/20 08:37:23;;;;;;;1.83;1.73;;;;;;;23.53;44.04;64438.69;4946551;29;20236;-78
2022/06/20 08:39:57;;;;;;;2.80;2.60;;;;;;;23.85;44.24;64470.09;4951158;28;20236;-79
2022/06/20 08:42:43;;;;;;;3.67;1.98;;;;;;;23.79;42.77;64463.81;4965508;28;20257;-79
2022/06/20 08:45:34;;;;;;;1.90;1.80;;;;;;;23.70;43.16;64453.88;4966388;29;20251;-80
2022/06/20 08:48:38;;;;;;;2.00;1.75;;;;;;;23.94;43.87;64473.78;4965672;29;20423;-78
2022/06/20 08:51:39;;;;;;;2.08;1.98;;;;;;;24.00;42.88;64487.88;4966775;28;20232;-77
2022/06/20 08:54:42;;;;;;;1.90;1.80;;;;;;;24.16;44.49;64506.72;4954249;28;20263;-78
2022/06/20 08:57:14;;;;;;;3.28;2.28;;;;;;;24.10;42.25;64493.16;4948977;28;20428;-78
2022/06/20 09:00:04;;;;;;;2.08;1.95;;;;;;;24.02;42.78;64490.00;4961135;28;20216;-78
2022/06/20 09:02:51;;;;;;;2.20;1.83;;;;;;;23.86;41.06;64470.63;4972566;28;20248;-77
2022/06/20 09:05:45;;;;;;;3.78;1.85;;;;;;;23.75;42.05;64457.03;4967438;29;20225;-77
2022/06/20 09:08:28;;;;;;;2.35;1.52;;;;;;;23.97;41.30;64484.72;4950412;28;20257;-78
2022/06/20 09:11:18;;;;;;;3.35;2.35;;;;;;;24.05;42.13;64487.38;4954754;29;20389;-78
2022/06/20 09:14:11;;;;;;;2.38;1.70;;;;;;;24.18;43.17;64501.50;4963899;28;20199;-79
2022/06/20 09:16:56;;;;;;;1.70;1.65;;;;;;;24.30;42.13;64519.28;4946167;28;20560;-78
2022/06/20 09:19:35;;;;;;;1.92;1.60;;;;;;;24.57;40.41;64544.44;4945917;28;20225;-78
2022/06/20 09:22:17;;;;;;;4.50;2.00;;;;;;;24.70;39.94;64558.59;5011422;28;20189;-80
2022/06/20 09:24:57;;;;;;;1.73;1.63;;;;;;;24.66;36.92;64551.25;4961882;29;20238;-77
2022/06/20 09:27:35;;;;;;;3.08;1.70;;;;;;;24.82;38.16;64573.75;4959895;28;20201;-78
2022/06/20 09:30:11;;;;;;;1.50;1.40;;;;;;;24.78;39.27;64564.34;4966983;29;20454;-78
2022/06/20 09:33:15;;;;;;;2.83;1.60;;;;;;;24.79;37.33;64567.47;4960901;29;20212;-78
2022/06/20 09:36:17;;;;;;;3.15;1.65;;;;;;;24.33;36.54;64522.44;4948506;28;20255;-78
2022/06/20 09:39:24;;;;;;;1.20;1.20;;;;;;;24.38;37.25;64527.13;4946648;29;20295;-78
2022/06/20 09:42:01;;;;;;;2.08;1.58;;;;;;;24.60;38.38;64548.09;4948067;29;20208;-77
2022/06/20 09:44:37;;;;;;;1.63;1.52;;;;;;;24.55;38.38;64542.34;4945509;29;20395;-78
2022/06/20 09:47:25;;;;;;;1.25;1.25;;;;;;;24.55;39.28;64544.94;4956167;29;20203;-78
2022/06/20 09:50:02;;;;;;;1.90;1.80;;;;;;;24.76;38.81;64567.47;4965118;29;20266;-77
2022/06/20 09:52:39;;;;;;;1.27;1.27;;;;;;;24.84;36.38;64575.84;4961195;29;20267;-78
2022/06/20 09:55:21;;;;;;;1.50;1.50;;;;;;;24.87;35.88;64578.47;4964055;29;20220;-78
2022/06/20 09:57:55;;;;;;;1.48;1.38;;;;;;;25.06;38.12;64596.28;4957593;28;20227;-78
2022/06/20 10:00:27;;;;;;;1.65;1.58;;;;;;;25.18;34.71;64605.72;4945109;29;20219;-78
2022/06/20 10:03:04;;;;;;;4.75;2.85;;;;;;;25.24;34.02;64616.69;4946877;28;20251;-77
2022/06/20 10:05:40;;;;;;;1.30;1.30;;;;;;;25.26;34.81;64618.81;4945468;29;20240;-78
2022/06/20 10:08:19;;;;;;;3.30;1.90;;;;;;;24.86;32.75;64572.75;4962199;28;20218;-77
2022/06/20 10:10:54;;;;;;;1.70;1.70;;;;;;;24.63;33.10;64553.31;4961087;29;20232;-78
2022/06/20 10:13:30;;;;;;;1.73;1.63;;;;;;;24.61;34.54;64546.53;4956418;29;20216;-78
2022/06/20 10:16:06;;;;;;;1.65;1.58;;;;;;;24.75;34.63;64563.28;4945480;29;20224;-77
2022/06/20 10:18:44;;;;;;;1.63;1.52;;;;;;;24.99;35.70;64588.44;4944846;29;20236;-78
2022/06/20 10:21:17;;;;;;;1.27;1.27;;;;;;;24.90;32.03;64582.13;4955358;28;20223;-78
2022/06/20 10:24:05;;;;;;;1.27;1.27;;;;;;;25.02;30.16;64592.09;4964511;29;20208;-77
2022/06/20 10:26:49;;;;;;;1.23;0.93;;;;;;;25.06;31.14;64596.28;4964234;29;20200;-78
2022/06/20 10:29:23;;;;;;;1.20;1.20;;;;;;;25.17;31.92;64609.38;4962582;28;20257;-79
2022/06/20 10:32:03;;;;;;;0.93;0.93;;;;;;;25.22;31.02;64617.75;4944433;29;20514;-78
2022/06/20 10:34:41;;;;;;;2.83;1.38;;;;;;;25.40;32.89;64634.03;4945968;29;20220;-78
2022/06/20 10:37:24;;;;;;;1.08;1.08;;;;;;;25.36;29.40;64624.06;4945561;29;20441;-77
2022/06/20 10:39:58;;;;;;;1.17;1.08;;;;;;;24.90;29.78;64579.00;4951488;29;20228;-77
2022/06/20 10:42:32;;;;;;;1.60;1.30;;;;;;;24.85;30.05;64573.78;4949166;28;20188;-78
2022/06/20 10:45:23;;;;;;;3.85;1.35;;;;;;;24.78;28.98;64571.66;4949462;28;20239;-78
2022/06/20 10:48:03;;;;;;;3.30;1.20;;;;;;;24.92;30.62;64581.09;4951592;29;20204;-79
2022/06/20 10:50:39;;;;;;;1.27;1.27;;;;;;;25.23;30.04;64613.56;4948059;29;20415;-77
2022/06/20 10:53:20;;;;;;;1.17;1.15;;;;;;;25.33;26.73;64626.13;4947786;28;20269;-78
2022/06/20 10:55:55;;;;;;;0.95;0.95;;;;;;;25.42;26.04;64630.38;4948515;28;20296;-77
2022/06/20 10:58:37;;;;;;;0.80;0.80;;;;;;;25.55;26.44;64646.59;4952565;28;20220;-78
2022/06/20 11:01:11;;;;;;;2.35;1.48;;;;;;;25.59;28.81;64651.31;4948376;29;20243;-78
2022/06/20 11:03:57;;;;;;;2.67;1.33;;;;;;;25.76;31.44;64663.91;4949384;29;20258;-79
2022/06/20 11:06:35;;;;;;;1.65;1.55;;;;;;;25.73;32.71;64668.59;4954989;28;20287;-78
2022/06/20 11:09:10;;;;;;;1.52;1.42;;;;;;;25.68;31.25;64660.75;4967458;28;20210;-78
2022/06/20 11:11:45;;;;;;;1.52;1.50;;;;;;;25.50;30.34;64647.09;4968235;29;20204;-78
2022/06/20 11:14:21;;;;;;;2.15;1.20;;;;;;;25.70;31.97;64665.44;4967394;28;20207;-77
2022/06/20 11:16:58;;;;;;;1.35;1.35;;;;;;;25.88;28.12;64679.09;4950879;28;20201;-77
2022/06/20 11:19:39;;;;;;;1.25;1.25;;;;;;;25.80;29.05;64672.81;4947503;28;20236;-77
2022/06/20 11:22:26;;;;;;;1.15;1.15;;;;;;;25.78;27.44;64670.69;4948666;28;20197;-77
2022/06/20 11:25:03;;;;;;;1.60;1.50;;;;;;;26.00;31.29;64694.28;4957633;29;20224;-77
2022/06/20 11:27:48;;;;;;;0.95;0.95;;;;;;;26.26;30.63;64718.44;4966835;29;20192;-77
2022/06/20 11:30:22;;;;;;;1.77;1.70;;;;;;;26.37;29.38;64735.16;4963149;28;20236;-77
2022/06/20 11:33:09;;;;;;;1.38;1.38;;;;;;;26.51;28.69;64747.25;4966800;28;20207;-77
2022/06/20 11:35:43;;;;;;;1.38;1.33;;;;;;;26.48;32.86;64743.56;4966781;29;20246;-77
2022/06/20 11:38:31;;;;;;;0.90;0.90;;;;;;;26.72;31.14;64771.91;4962166;29;20395;-77
2022/06/20 11:41:03;;;;;;;1.30;1.30;;;;;;;26.95;31.62;64798.66;4946488;29;20235;-78
2022/06/20 11:43:54;;;;;;;1.42;1.42;;;;;;;27.16;31.61;64814.91;4946992;28;20197;-78
2022/06/20 11:46:47;;;;;;;2.47;1.52;;;;;;;27.38;30.63;64840.09;4948651;29;20243;-77
2022/06/20 11:49:29;;;;;;;1.40;1.25;;;;;;;27.61;29.98;64859.53;4948503;29;20264;-76
2022/06/20 11:52:06;;;;;;;1.15;1.15;;;;;;;27.87;25.42;64886.31;4948947;28;20189;-78
2022/06/20 11:54:42;;;;;;;1.13;1.13;;;;;;;28.16;26.07;64919.38;4948876;28;20220;-78
2022/06/20 11:57:18;;;;;;;1.70;1.20;;;;;;;28.40;27.39;64947.19;4960073;28;20214;-77
2022/06/20 11:59:54;;;;;;;1.27;1.17;;;;;;;28.66;27.26;64968.75;4969144;29;20274;-78
2022/06/20 12:02:54;;;;;;;1.50;1.40;;;;;;;28.86;26.22;64992.91;4965098;29;20271;-78
2022/06/20 12:05:42;;;;;;;1.35;1.20;;;;;;;28.26;25.57;64935.13;5021769;28;20209;-78
2022/06/20 12:08:22;;;;;;;1.08;0.98;;;;;;;28.09;26.16;64914.66;4947119;28;20280;-83
2022/06/20 12:10:55;;;;;;;1.30;1.20;;;;;;;28.74;29.75;64982.91;4952106;29;20287;-78